Time;durP1;ratioP1;P1;durP2;ratioP2;P2;SDS_P1;SDS_P2;PMS_P1;PMS_P2;Temp;Humidity;BMP_temperature;BMP_pressure;BME280_temperature;BME280_humidity;BME280_pressure;Samples;Min_cycle;Max_cycle;Signal;HPM_P1;HPM_P2
2023/02/08 00:01:06;;;;;;;17.73;12.63;;;2.90;99.90;;;;;;5068681;28;20448;-72
2023/02/08 00:03:32;;;;;;;21.63;13.40;;;2.90;99.90;;;;;;5074456;28;20962;-72
2023/02/08 00:05:57;;;;;;;18.80;13.33;;;2.90;99.90;;;;;;5070716;28;20481;-72
2023/02/08 00:08:23;;;;;;;20.07;12.90;;;2.90;99.90;;;;;;5071249;28;20213;-73
2023/02/08 00:10:49;;;;;;;19.00;12.93;;;2.90;99.90;;;;;;5072797;28;20241;-72
2023/02/08 00:13:14;;;;;;;19.83;13.00;;;2.90;99.90;;;;;;5073677;28;20605;-72
2023/02/08 00:15:42;;;;;;;23.80;13.30;;;2.90;99.90;;;;;;5071535;28;20182;-72
2023/02/08 00:18:08;;;;;;;19.50;13.40;;;2.90;99.90;;;;;;5073651;28;20185;-71
2023/02/08 00:20:33;;;;;;;16.97;11.67;;;2.90;99.90;;;;;;5073694;28;20953;-71
2023/02/08 00:22:59;;;;;;;20.07;13.10;;;2.90;99.90;;;;;;5070092;28;20219;-71
2023/02/08 00:25:24;;;;;;;20.33;13.40;;;2.90;99.90;;;;;;5072458;28;20628;-72
2023/02/08 00:27:50;;;;;;;20.03;13.90;;;2.80;99.90;;;;;;5071436;28;20992;-72
2023/02/08 00:30:15;;;;;;;20.93;13.67;;;2.80;99.90;;;;;;5070941;28;20229;-72
2023/02/08 00:32:41;;;;;;;20.73;12.97;;;2.70;99.90;;;;;;5072777;28;20191;-72
2023/02/08 00:35:07;;;;;;;22.60;13.80;;;2.70;99.90;;;;;;5071754;28;20194;-71
2023/02/08 00:37:32;;;;;;;18.23;13.27;;;2.80;99.90;;;;;;5070358;28;20268;-71
2023/02/08 00:40:01;;;;;;;20.10;13.50;;;2.80;99.90;;;;;;5072637;28;20182;-72
2023/02/08 00:42:27;;;;;;;17.27;11.73;;;2.80;99.90;;;;;;5073073;28;20604;-72
2023/02/08 00:44:53;;;;;;;16.40;11.10;;;2.70;99.90;;;;;;5073962;28;20476;-72
2023/02/08 00:47:18;;;;;;;18.30;12.07;;;2.70;99.90;;;;;;5051365;28;20468;-71
2023/02/08 00:49:44;;;;;;;18.23;12.03;;;2.70;99.90;;;;;;5073971;28;20477;-72
2023/02/08 00:52:09;;;;;;;18.23;12.00;;;2.70;99.90;;;;;;5073603;28;20193;-72
2023/02/08 00:54:35;;;;;;;16.30;13.03;;;2.70;99.90;;;;;;5070629;28;20193;-72
2023/02/08 00:57:00;;;;;;;20.73;13.40;;;2.70;99.90;;;;;;5069291;28;20221;-71
2023/02/08 00:59:26;;;;;;;17.50;12.30;;;2.70;99.90;;;;;;5070388;28;20324;-70
2023/02/08 01:01:52;;;;;;;16.07;11.67;;;2.70;99.90;;;;;;5072766;28;20186;-69
2023/02/08 01:04:17;;;;;;;20.23;13.03;;;2.70;99.90;;;;;;5071755;28;20723;-70
2023/02/08 01:06:43;;;;;;;18.43;13.43;;;2.70;99.90;;;;;;5069192;28;20254;-70
2023/02/08 01:09:08;;;;;;;24.63;15.30;;;2.70;99.90;;;;;;5052549;28;20191;-70
2023/02/08 01:11:34;;;;;;;23.33;14.10;;;2.70;99.90;;;;;;5074377;28;20717;-71
2023/02/08 01:14:00;;;;;;;25.53;14.10;;;2.70;99.90;;;;;;5069700;28;20188;-70
2023/02/08 01:16:28;;;;;;;19.83;13.67;;;2.70;99.90;;;;;;5071601;28;20211;-70
2023/02/08 01:18:56;;;;;;;20.70;13.17;;;2.70;99.90;;;;;;5050421;28;20191;-70
2023/02/08 01:21:29;;;;;;;17.67;12.57;;;2.70;99.90;;;;;;5073644;28;20486;-70
2023/02/08 01:23:55;;;;;;;16.73;11.97;;;2.60;99.90;;;;;;5069294;28;20453;-71
2023/02/08 01:26:22;;;;;;;19.93;14.13;;;2.60;99.90;;;;;;5074657;28;20570;-70
2023/02/08 01:28:48;;;;;;;19.07;12.60;;;2.60;99.90;;;;;;5074353;28;20490;-70
2023/02/08 01:31:27;;;;;;;23.03;12.77;;;2.60;99.90;;;;;;5072559;28;20460;-70
2023/02/08 01:33:53;;;;;;;17.97;12.97;;;2.60;99.90;;;;;;5073787;28;20432;-70
2023/02/08 01:36:19;;;;;;;20.40;12.70;;;2.60;99.90;;;;;;5073172;28;21114;-69
2023/02/08 01:38:45;;;;;;;19.07;13.43;;;2.60;99.90;;;;;;5076213;28;20432;-70
2023/02/08 01:41:23;;;;;;;21.47;14.47;;;2.50;99.90;;;;;;5072997;28;20435;-70
2023/02/08 01:44:46;;;;;;;19.70;12.90;;;2.40;99.90;;;;;;5072367;28;20455;-70
2023/02/08 01:47:11;;;;;;;24.00;13.93;;;2.40;99.90;;;;;;5072565;28;20542;-71
2023/02/08 01:49:37;;;;;;;20.00;14.33;;;2.40;99.90;;;;;;5073972;28;20535;-70
2023/02/08 01:52:12;;;;;;;22.87;13.00;;;2.40;99.90;;;;;;5075635;28;20636;-70
2023/02/08 01:54:59;;;;;;;21.33;12.77;;;2.30;99.90;;;;;;5077820;28;20431;-71
2023/02/08 01:57:25;;;;;;;18.70;12.53;;;2.40;99.90;;;;;;5079033;28;20458;-71
2023/02/08 01:59:59;;;;;;;20.67;13.73;;;2.30;99.90;;;;;;5075198;28;20445;-72
2023/02/08 02:02:25;;;;;;;18.57;12.57;;;2.30;99.90;;;;;;5077854;28;20544;-71
2023/02/08 02:04:51;;;;;;;21.50;14.10;;;2.30;99.90;;;;;;5072866;28;20441;-72
2023/02/08 02:07:19;;;;;;;16.50;13.00;;;2.30;99.90;;;;;;5056016;28;20509;-72
2023/02/08 02:09:51;;;;;;;18.53;12.67;;;2.30;99.90;;;;;;5075283;28;20506;-72
2023/02/08 02:12:17;;;;;;;19.90;12.50;;;2.30;99.90;;;;;;5074849;28;20841;-71
2023/02/08 02:14:44;;;;;;;19.57;12.40;;;2.30;99.90;;;;;;5066978;28;20448;-71
2023/02/08 02:17:11;;;;;;;19.80;13.97;;;2.30;99.90;;;;;;5071978;28;20872;-71
2023/02/08 02:19:55;;;;;;;17.20;13.23;;;2.30;99.90;;;;;;5076237;28;20471;-71
2023/02/08 02:22:30;;;;;;;21.23;12.10;;;2.30;99.90;;;;;;5073311;28;20416;-71
2023/02/08 02:25:34;;;;;;;19.03;13.13;;;2.20;99.90;;;;;;5075418;28;20745;-71
2023/02/08 02:28:18;;;;;;;21.47;13.40;;;2.20;99.90;;;;;;5024940;28;20822;-71
2023/02/08 02:31:08;;;;;;;18.40;12.27;;;2.20;99.90;;;;;;5071119;28;20467;-71
2023/02/08 02:33:58;;;;;;;19.60;13.23;;;2.20;99.90;;;;;;5070841;28;20463;-71
2023/02/08 02:36:39;;;;;;;16.80;12.10;;;2.10;99.90;;;;;;5076708;28;20451;-71
2023/02/08 02:39:22;;;;;;;18.33;12.97;;;2.10;99.90;;;;;;5073102;28;20434;-72
2023/02/08 02:45:20;;;;;;;17.80;12.93;;;2.10;99.90;;;;;;5074284;28;20555;-72
2023/02/08 02:47:56;;;;;;;21.13;13.13;;;2.00;99.90;;;;;;5072213;28;20468;-71
2023/02/08 02:50:43;;;;;;;23.67;14.10;;;2.00;99.90;;;;;;5077109;28;20470;-72
2023/02/08 02:53:27;;;;;;;20.07;13.87;;;2.00;99.90;;;;;;5072850;28;20439;-72
2023/02/08 02:55:57;;;;;;;20.00;11.73;;;2.00;99.90;;;;;;5072622;28;20879;-71
2023/02/08 02:58:25;;;;;;;22.30;14.70;;;2.00;99.90;;;;;;5076419;28;20539;-72
2023/02/08 03:00:56;;;;;;;19.17;12.73;;;1.90;99.90;;;;;;5074093;28;21035;-71
2023/02/08 03:03:24;;;;;;;16.93;11.60;;;1.90;99.90;;;;;;5070323;28;20438;-71
2023/02/08 03:05:52;;;;;;;18.93;12.60;;;1.90;99.90;;;;;;5051365;28;20475;-71
2023/02/08 03:08:41;;;;;;;19.80;14.03;;;1.90;99.90;;;;;;5074484;28;20462;-71
2023/02/08 03:11:24;;;;;;;17.90;13.67;;;1.90;99.90;;;;;;5075418;28;20488;-73
2023/02/08 03:14:17;;;;;;;21.23;14.33;;;1.90;99.90;;;;;;5071255;28;20531;-71
2023/02/08 03:17:02;;;;;;;24.37;14.70;;;1.90;99.90;;;;;;5072280;28;20462;-70
2023/02/08 03:19:36;;;;;;;20.90;12.73;;;1.90;99.90;;;;;;5075030;28;20439;-70
2023/02/08 03:22:25;;;;;;;19.57;12.83;;;1.90;99.90;;;;;;5068759;28;20496;-70
2023/02/08 03:24:53;;;;;;;21.23;14.10;;;1.80;99.90;;;;;;5069164;28;20456;-70
2023/02/08 03:27:31;;;;;;;19.13;13.33;;;1.80;99.90;;;;;;5074594;28;20459;-71
2023/02/08 03:30:09;;;;;;;17.57;13.00;;;1.80;99.90;;;;;;5073913;28;20458;-69
2023/02/08 03:32:53;;;;;;;19.67;13.30;;;1.80;99.90;;;;;;5076570;28;20448;-70
2023/02/08 03:35:35;;;;;;;18.80;12.93;;;1.80;99.90;;;;;;5071006;28;21079;-70
2023/02/08 03:38:13;;;;;;;17.63;11.90;;;1.80;99.90;;;;;;5069267;28;20723;-70
2023/02/08 03:40:48;;;;;;;20.50;12.40;;;1.70;99.90;;;;;;5076151;28;20447;-69
2023/02/08 03:43:22;;;;;;;14.83;11.37;;;1.70;99.90;;;;;;5066105;28;20483;-70
2023/02/08 03:46:23;;;;;;;18.90;12.57;;;1.70;99.90;;;;;;5070234;28;20456;-69
2023/02/08 03:48:58;;;;;;;21.83;12.23;;;1.70;99.90;;;;;;5074669;28;20422;-69
2023/02/08 03:51:27;;;;;;;18.23;12.67;;;1.70;99.90;;;;;;5069618;28;20450;-69
2023/02/08 03:53:55;;;;;;;17.60;11.77;;;1.70;99.90;;;;;;5073595;28;20424;-68
2023/02/08 03:56:38;;;;;;;17.10;11.97;;;1.70;99.90;;;;;;5073158;28;20455;-69
2023/02/08 03:59:10;;;;;;;17.67;12.60;;;1.70;99.90;;;;;;5070203;28;20963;-69
2023/02/08 04:01:42;;;;;;;19.77;13.50;;;1.70;99.90;;;;;;5074170;28;20961;-69
2023/02/08 04:04:10;;;;;;;18.83;11.93;;;1.70;99.90;;;;;;5070866;28;20515;-68
2023/02/08 04:06:35;;;;;;;18.70;13.17;;;1.70;99.90;;;;;;5072925;28;20543;-69
2023/02/08 04:09:01;;;;;;;14.97;10.93;;;1.60;99.90;;;;;;5072388;28;20862;-70
2023/02/08 04:11:26;;;;;;;19.93;13.33;;;1.70;99.90;;;;;;5075589;28;20294;-70
2023/02/08 04:13:52;;;;;;;16.50;11.80;;;1.70;99.90;;;;;;5054791;28;20187;-69
2023/02/08 04:16:17;;;;;;;19.40;12.50;;;1.60;99.90;;;;;;5072981;28;20574;-70
2023/02/08 04:18:43;;;;;;;19.63;13.47;;;1.60;99.90;;;;;;5075336;28;20180;-70
2023/02/08 04:21:08;;;;;;;20.43;13.13;;;1.60;99.90;;;;;;5070748;28;20585;-70
2023/02/08 04:23:34;;;;;;;20.83;12.83;;;1.60;99.90;;;;;;5074005;28;20251;-70
2023/02/08 04:26:00;;;;;;;18.33;12.20;;;1.60;99.90;;;;;;5071914;28;20689;-70
2023/02/08 04:28:25;;;;;;;17.57;12.97;;;1.60;99.90;;;;;;5070906;28;20215;-69
2023/02/08 04:30:54;;;;;;;23.70;14.67;;;1.60;99.90;;;;;;5052935;28;20580;-69
2023/02/08 04:33:19;;;;;;;21.93;13.40;;;1.60;99.90;;;;;;5069599;28;20189;-69
2023/02/08 04:35:45;;;;;;;20.17;11.63;;;1.60;99.90;;;;;;5073920;28;20905;-69
2023/02/08 04:38:10;;;;;;;18.57;12.70;;;1.50;99.90;;;;;;5068158;28;20650;-69
2023/02/08 04:40:36;;;;;;;20.93;12.13;;;1.60;99.90;;;;;;5069858;28;20688;-70
2023/02/08 04:43:01;;;;;;;22.73;13.37;;;1.50;99.90;;;;;;5070901;28;21243;-69
2023/02/08 04:45:28;;;;;;;22.20;12.53;;;1.60;99.90;;;;;;5073079;28;20192;-69
2023/02/08 04:47:54;;;;;;;17.93;12.13;;;1.60;99.90;;;;;;5074817;28;20568;-70
2023/02/08 04:50:20;;;;;;;20.07;13.47;;;1.60;99.90;;;;;;5075059;28;20467;-70
2023/02/08 04:52:45;;;;;;;19.20;13.17;;;1.60;99.90;;;;;;5074424;28;20183;-71
2023/02/08 04:55:11;;;;;;;18.27;12.63;;;1.50;99.90;;;;;;5071348;28;20194;-70
2023/02/08 04:57:36;;;;;;;18.73;12.03;;;1.50;99.90;;;;;;5076494;28;20194;-70
2023/02/08 05:00:03;;;;;;;16.93;12.13;;;1.50;99.90;;;;;;5073232;28;20281;-70
2023/02/08 05:02:29;;;;;;;23.17;13.40;;;1.50;99.90;;;;;;5077983;28;20240;-70
2023/02/08 05:04:54;;;;;;;28.13;13.57;;;1.50;99.90;;;;;;5074416;28;20439;-70
2023/02/08 05:07:20;;;;;;;20.40;13.13;;;1.50;99.90;;;;;;5074676;28;20237;-69
2023/02/08 05:09:45;;;;;;;22.70;12.70;;;1.50;99.90;;;;;;5077235;28;20203;-69
2023/02/08 05:12:11;;;;;;;15.60;11.27;;;1.50;99.90;;;;;;5076192;28;20196;-71
2023/02/08 05:14:37;;;;;;;19.87;13.23;;;1.50;99.90;;;;;;5072947;28;20431;-70
2023/02/08 05:17:02;;;;;;;16.80;12.23;;;1.50;99.90;;;;;;5071697;28;20214;-70
2023/02/08 05:19:28;;;;;;;20.80;11.43;;;1.40;99.90;;;;;;5074545;28;20175;-70
2023/02/08 05:21:53;;;;;;;17.97;11.80;;;1.40;99.90;;;;;;5059617;28;20595;-69
2023/02/08 05:24:19;;;;;;;27.00;13.23;;;1.40;99.90;;;;;;5061702;28;20206;-69
2023/02/08 05:26:44;;;;;;;22.57;13.10;;;1.40;99.90;;;;;;5079551;28;20211;-70
2023/02/08 05:29:10;;;;;;;15.93;12.43;;;1.40;99.90;;;;;;5075281;28;20308;-69
2023/02/08 05:31:36;;;;;;;16.63;11.37;;;1.40;99.90;;;;;;5071707;28;20793;-70
2023/02/08 05:34:01;;;;;;;20.57;12.17;;;1.40;99.90;;;;;;5077510;28;20181;-71
2023/02/08 05:36:27;;;;;;;22.90;12.30;;;1.30;99.90;;;;;;5076514;28;20201;-70
2023/02/08 05:38:53;;;;;;;16.60;11.67;;;1.30;99.90;;;;;;5072606;28;20651;-69
2023/02/08 05:41:18;;;;;;;18.77;12.30;;;1.30;99.90;;;;;;5074900;28;20191;-69
2023/02/08 05:43:44;;;;;;;20.10;13.50;;;1.30;99.90;;;;;;5061809;28;20189;-69
2023/02/08 05:46:10;;;;;;;18.97;13.20;;;1.30;99.90;;;;;;5057576;28;20680;-69
2023/02/08 05:48:36;;;;;;;19.33;12.33;;;1.30;99.90;;;;;;5078014;28;20481;-69
2023/02/08 05:51:02;;;;;;;19.63;13.20;;;1.20;99.90;;;;;;5073580;28;20985;-69
2023/02/08 05:53:28;;;;;;;20.30;12.17;;;1.20;99.90;;;;;;5073458;28;20429;-69
2023/02/08 05:55:56;;;;;;;19.60;12.10;;;1.20;99.90;;;;;;5069283;28;20854;-69
2023/02/08 05:58:21;;;;;;;18.57;13.13;;;1.20;99.90;;;;;;5075452;28;20443;-69
2023/02/08 06:00:47;;;;;;;21.97;12.80;;;1.10;99.90;;;;;;5070159;28;20871;-70
2023/02/08 06:03:12;;;;;;;16.63;11.93;;;1.10;99.90;;;;;;5071165;28;20280;-71
2023/02/08 06:05:39;;;;;;;18.60;11.33;;;1.10;99.90;;;;;;5072653;28;20284;-71
2023/02/08 06:08:05;;;;;;;18.03;10.80;;;1.10;99.90;;;;;;5072392;28;20190;-70
2023/02/08 06:10:31;;;;;;;20.00;12.83;;;1.10;99.90;;;;;;5071565;28;20553;-70
2023/02/08 06:12:57;;;;;;;17.77;12.33;;;1.10;99.90;;;;;;5072156;28;20569;-70
2023/02/08 06:15:22;;;;;;;19.23;12.23;;;1.10;99.90;;;;;;5074386;28;20282;-72
2023/02/08 06:17:48;;;;;;;26.93;13.10;;;1.10;99.90;;;;;;5053906;28;20198;-71
2023/02/08 06:20:13;;;;;;;21.23;11.70;;;1.00;99.90;;;;;;5074338;28;20193;-72
2023/02/08 06:22:39;;;;;;;18.57;12.57;;;1.10;99.90;;;;;;5070629;28;20547;-70
2023/02/08 06:25:05;;;;;;;20.37;12.70;;;1.10;99.90;;;;;;5053764;28;20189;-71
2023/02/08 06:27:30;;;;;;;20.80;12.87;;;1.10;99.90;;;;;;5072972;28;20209;-71
2023/02/08 06:29:56;;;;;;;20.43;12.90;;;1.10;99.90;;;;;;5071304;28;20872;-71
2023/02/08 06:32:21;;;;;;;20.83;12.90;;;1.00;99.90;;;;;;5076657;28;20204;-71
2023/02/08 06:34:49;;;;;;;24.33;13.70;;;1.10;99.90;;;;;;5071189;28;20264;-70
2023/02/08 06:37:15;;;;;;;20.20;13.07;;;1.00;99.90;;;;;;5070796;28;20205;-72
2023/02/08 06:39:41;;;;;;;19.77;12.63;;;1.10;99.90;;;;;;5069607;28;20505;-69
2023/02/08 06:42:07;;;;;;;18.03;13.67;;;1.10;99.90;;;;;;5070786;28;20436;-70
2023/02/08 06:44:32;;;;;;;34.43;13.27;;;1.10;99.90;;;;;;5072173;28;20265;-69
2023/02/08 06:46:58;;;;;;;22.10;13.77;;;1.00;99.90;;;;;;5071067;28;20198;-71
2023/02/08 06:49:23;;;;;;;23.63;12.60;;;1.10;99.90;;;;;;5077304;28;20198;-70
2023/02/08 06:51:49;;;;;;;16.80;11.43;;;1.10;99.90;;;;;;5075597;28;20458;-70
2023/02/08 06:54:14;;;;;;;19.87;13.20;;;1.10;99.90;;;;;;5074445;28;20181;-70
2023/02/08 06:56:41;;;;;;;20.47;13.10;;;1.00;99.90;;;;;;5070860;28;20287;-70
2023/02/08 06:59:06;;;;;;;20.60;12.70;;;1.00;99.90;;;;;;5070056;28;20217;-70
2023/02/08 07:01:32;;;;;;;17.27;11.80;;;1.00;99.90;;;;;;5073698;28;20464;-70
2023/02/08 07:03:57;;;;;;;19.30;11.73;;;1.00;99.90;;;;;;5074088;28;20211;-70
2023/02/08 07:06:23;;;;;;;18.87;13.27;;;1.00;99.90;;;;;;5075324;28;20244;-69
2023/02/08 07:08:48;;;;;;;20.60;12.47;;;1.00;99.90;;;;;;5073037;28;20272;-70
2023/02/08 07:11:16;;;;;;;20.00;13.13;;;1.00;99.90;;;;;;5065195;28;20297;-72
2023/02/08 07:13:46;;;;;;;22.50;14.30;;;1.00;99.90;;;;;;5055958;28;20188;-71
2023/02/08 07:16:12;;;;;;;23.53;13.87;;;1.00;99.90;;;;;;5072727;28;20447;-70
2023/02/08 07:18:37;;;;;;;18.93;14.03;;;1.00;99.90;;;;;;5052473;28;20440;-70
2023/02/08 07:21:03;;;;;;;19.83;13.60;;;1.00;99.90;;;;;;5069594;28;20271;-69
2023/02/08 07:23:29;;;;;;;23.17;13.67;;;1.00;99.90;;;;;;5045898;28;20207;-70
2023/02/08 07:25:57;;;;;;;21.63;12.50;;;1.00;99.90;;;;;;5053148;28;20466;-69
2023/02/08 07:28:23;;;;;;;19.03;12.33;;;1.00;99.90;;;;;;5076904;28;20534;-69
2023/02/08 07:30:48;;;;;;;18.57;13.13;;;1.00;99.90;;;;;;5075042;28;20467;-68
2023/02/08 07:33:14;;;;;;;19.37;12.40;;;1.00;99.90;;;;;;5072805;28;20212;-69
2023/02/08 07:35:39;;;;;;;24.47;13.23;;;1.10;99.90;;;;;;5073146;28;20263;-69
2023/02/08 07:38:05;;;;;;;17.53;12.07;;;1.00;99.90;;;;;;5071165;28;20272;-66
2023/02/08 07:40:30;;;;;;;19.57;13.43;;;1.00;99.90;;;;;;5069152;28;20250;-70
2023/02/08 07:42:56;;;;;;;18.50;12.40;;;1.00;99.90;;;;;;5052219;28;20562;-70
2023/02/08 07:45:22;;;;;;;16.20;12.40;;;1.10;99.90;;;;;;5066409;28;20178;-70
2023/02/08 07:47:47;;;;;;;21.47;12.00;;;1.10;99.90;;;;;;5070991;28;20238;-70
2023/02/08 07:50:15;;;;;;;20.63;12.87;;;1.10;99.90;;;;;;5071216;28;20229;-70
2023/02/08 07:52:42;;;;;;;24.90;14.40;;;1.10;99.90;;;;;;5074539;28;21258;-70
2023/02/08 07:55:10;;;;;;;25.90;13.60;;;1.10;99.90;;;;;;5064568;28;20425;-70
2023/02/08 07:57:36;;;;;;;22.70;13.90;;;1.10;99.90;;;;;;5070938;28;20757;-70
2023/02/08 08:00:03;;;;;;;20.30;13.17;;;1.10;99.90;;;;;;5069890;28;20430;-70
2023/02/08 08:02:28;;;;;;;20.80;13.23;;;1.20;99.90;;;;;;5071451;28;20191;-68
2023/02/08 08:04:54;;;;;;;22.40;14.43;;;1.20;99.90;;;;;;5071659;28;20439;-71
2023/02/08 08:07:19;;;;;;;19.90;11.33;;;1.20;99.90;;;;;;5065839;28;20197;-69
2023/02/08 08:09:45;;;;;;;18.40;13.70;;;1.20;99.90;;;;;;5076463;28;20212;-72
2023/02/08 08:12:10;;;;;;;23.33;13.57;;;1.30;99.90;;;;;;5074962;28;20578;-73
2023/02/08 08:14:36;;;;;;;19.70;13.70;;;1.40;99.90;;;;;;5074681;28;20183;-72
2023/02/08 08:17:01;;;;;;;23.13;13.50;;;1.40;99.90;;;;;;5070678;28;20231;-71
2023/02/08 08:19:27;;;;;;;23.90;13.70;;;1.40;99.90;;;;;;5074238;28;20185;-70
2023/02/08 08:21:53;;;;;;;25.37;13.23;;;1.50;99.90;;;;;;5077360;28;20758;-68
2023/02/08 08:24:18;;;;;;;21.70;14.80;;;1.50;99.90;;;;;;5077959;28;20587;-69
2023/02/08 08:26:44;;;;;;;20.20;14.73;;;1.60;99.90;;;;;;5059829;28;20252;-69
2023/02/08 08:29:09;;;;;;;21.17;13.20;;;1.60;99.90;;;;;;5072216;28;20189;-68
2023/02/08 08:31:37;;;;;;;21.73;14.47;;;1.70;99.90;;;;;;5079648;28;20202;-69
2023/02/08 08:34:02;;;;;;;26.10;12.97;;;1.70;99.90;;;;;;5080922;28;20686;-70
2023/02/08 08:36:29;;;;;;;22.13;13.53;;;1.70;99.90;;;;;;5082336;28;20448;-69
2023/02/08 08:38:54;;;;;;;22.53;14.40;;;1.80;99.90;;;;;;5080602;28;20701;-68
2023/02/08 08:41:26;;;;;;;22.03;12.90;;;1.80;99.90;;;;;;5075920;28;20430;-70
2023/02/08 08:43:51;;;;;;;38.30;13.80;;;1.80;99.90;;;;;;5082837;28;20183;-72
2023/02/08 08:46:17;;;;;;;17.60;12.57;;;1.80;99.90;;;;;;5078762;28;20461;-71
2023/02/08 08:48:44;;;;;;;18.53;14.00;;;1.90;99.90;;;;;;5082465;28;20185;-71
2023/02/08 08:51:10;;;;;;;21.40;14.23;;;1.90;99.90;;;;;;5078288;28;20622;-71
2023/02/08 08:53:36;;;;;;;17.83;13.43;;;1.90;99.90;;;;;;5079696;28;20423;-72
2023/02/08 08:56:02;;;;;;;22.87;13.60;;;1.90;99.90;;;;;;5077137;28;20460;-72
2023/02/08 08:58:28;;;;;;;21.80;14.07;;;1.90;99.90;;;;;;5063389;28;20171;-72
2023/02/08 09:00:58;;;;;;;22.90;15.20;;;1.90;99.90;;;;;;5078762;28;20426;-70
2023/02/08 09:03:25;;;;;;;22.87;15.27;;;1.90;99.90;;;;;;5079043;28;20271;-70
2023/02/08 09:05:51;;;;;;;22.07;15.10;;;1.90;99.90;;;;;;5072592;28;20464;-69
2023/02/08 09:08:17;;;;;;;20.90;14.73;;;2.00;99.90;;;;;;5056705;28;20419;-72
2023/02/08 09:10:43;;;;;;;32.10;14.27;;;2.00;99.90;;;;;;5079777;28;20680;-71
2023/02/08 09:13:09;;;;;;;22.03;13.33;;;1.90;99.90;;;;;;5078978;28;20428;-69
2023/02/08 09:15:39;;;;;;;23.97;15.70;;;2.00;99.90;;;;;;5076561;28;21030;-71
2023/02/08 09:18:04;;;;;;;27.77;15.70;;;2.00;99.90;;;;;;5071824;28;20423;-70
2023/02/08 09:20:30;;;;;;;19.17;14.30;;;2.10;99.90;;;;;;5082356;28;20953;-70
2023/02/08 09:22:55;;;;;;;21.33;14.97;;;2.10;99.90;;;;;;5076250;28;20186;-71
2023/02/08 09:25:21;;;;;;;23.03;14.30;;;2.10;99.90;;;;;;5079008;28;20236;-71
2023/02/08 09:27:47;;;;;;;20.70;14.20;;;2.20;99.90;;;;;;5080737;28;20198;-69
2023/02/08 09:30:13;;;;;;;22.93;14.87;;;2.20;99.90;;;;;;5080595;28;21422;-71
2023/02/08 09:32:39;;;;;;;21.43;13.77;;;2.30;99.90;;;;;;5075477;28;20291;-71
2023/02/08 09:35:06;;;;;;;20.70;14.10;;;2.30;99.90;;;;;;5076125;28;20183;-71
2023/02/08 09:37:31;;;;;;;25.03;14.23;;;2.40;99.90;;;;;;5071362;28;20826;-70
2023/02/08 09:39:58;;;;;;;15.93;12.03;;;2.40;99.90;;;;;;5077339;28;20424;-70
2023/02/08 09:42:37;;;;;;;24.10;14.20;;;2.50;99.90;;;;;;5074965;28;20193;-70
2023/02/08 09:45:36;;;;;;;22.43;14.53;;;2.50;99.90;;;;;;5077005;28;20468;-72
2023/02/08 09:48:17;;;;;;;16.10;12.63;;;2.60;99.90;;;;;;5077098;28;20471;-73
2023/02/08 09:51:06;;;;;;;25.10;13.90;;;2.60;99.90;;;;;;5075800;28;20546;-72
2023/02/08 09:53:36;;;;;;;21.00;13.90;;;2.60;99.90;;;;;;5074755;28;20437;-74
2023/02/08 09:56:05;;;;;;;17.73;11.67;;;2.60;99.90;;;;;;5075021;28;21022;-72
2023/02/08 09:58:51;;;;;;;21.03;13.63;;;2.70;99.90;;;;;;5075729;28;20919;-71
2023/02/08 10:01:22;;;;;;;22.03;14.40;;;2.80;99.90;;;;;;5077925;28;20426;-71
2023/02/08 10:03:52;;;;;;;18.30;12.70;;;2.80;99.90;;;;;;5055618;28;20441;-69
2023/02/08 10:06:19;;;;;;;22.73;13.00;;;3.00;99.90;;;;;;5075495;28;20475;-72
2023/02/08 10:08:48;;;;;;;20.17;12.77;;;3.00;99.90;;;;;;5075624;28;20440;-72
2023/02/08 10:11:23;;;;;;;17.13;12.80;;;3.00;99.90;;;;;;5077587;28;20483;-74
2023/02/08 10:14:10;;;;;;;17.73;13.60;;;3.10;99.90;;;;;;5078913;28;20846;-73
2023/02/08 10:16:54;;;;;;;19.03;12.63;;;3.10;99.90;;;;;;5080260;28;20860;-72
2023/02/08 10:19:35;;;;;;;28.50;19.63;;;3.20;99.90;;;;;;5074868;28;20468;-72
2023/02/08 10:22:44;;;;;;;22.60;13.77;;;3.20;99.90;;;;;;5071280;28;20514;-76
2023/02/08 10:25:25;;;;;;;18.30;12.63;;;3.30;99.90;;;;;;5076275;28;20456;-71
2023/02/08 10:28:15;;;;;;;21.20;13.53;;;3.40;99.70;;;;;;5058344;28;20444;-72
2023/02/08 10:30:54;;;;;;;17.17;11.30;;;3.50;99.70;;;;;;5077320;28;20559;-72
2023/02/08 10:33:30;;;;;;;20.60;13.40;;;3.60;99.10;;;;;;5076180;28;20439;-72
2023/02/08 10:35:56;;;;;;;18.73;12.10;;;3.60;98.90;;;;;;5070812;28;20507;-71
2023/02/08 10:38:28;;;;;;;15.10;10.00;;;3.70;98.70;;;;;;5074936;28;20470;-70
2023/02/08 10:40:58;;;;;;;18.50;10.10;;;3.70;97.60;;;;;;5076248;28;20485;-73
2023/02/08 10:43:34;;;;;;;14.20;10.60;;;3.80;96.90;;;;;;5058284;28;20448;-75
2023/02/08 10:46:24;;;;;;;14.30;10.23;;;3.90;96.60;;;;;;5076413;28;20440;-72
2023/02/08 10:49:07;;;;;;;13.03;9.27;;;4.00;94.90;;;;;;5079191;28;20425;-75
2023/02/08 10:51:33;;;;;;;17.67;11.53;;;4.10;94.60;;;;;;5074069;28;21012;-72
2023/02/08 10:53:59;;;;;;;19.10;9.90;;;4.20;93.80;;;;;;5073632;28;20441;-76
2023/02/08 10:56:45;;;;;;;17.73;10.27;;;4.30;91.60;;;;;;5075334;28;20457;-77
2023/02/08 10:59:28;;;;;;;20.77;10.20;;;4.30;91.50;;;;;;5078244;28;20293;-75
2023/02/08 11:01:55;;;;;;;14.17;9.80;;;4.30;90.90;;;;;;5074827;28;20417;-70
2023/02/08 11:04:21;;;;;;;13.03;9.90;;;4.40;90.60;;;;;;5070676;28;20945;-69
2023/02/08 11:06:49;;;;;;;16.47;10.57;;;4.40;90.20;;;;;;5050570;28;20529;-68
2023/02/08 11:09:24;;;;;;;22.63;10.23;;;4.50;90.50;;;;;;5066250;28;20789;-69
2023/02/08 11:11:51;;;;;;;16.13;10.20;;;4.50;90.00;;;;;;5071758;28;20511;-69
2023/02/08 11:14:27;;;;;;;19.43;11.47;;;4.50;89.90;;;;;;5073788;28;20419;-68
2023/02/08 11:16:54;;;;;;;18.20;12.47;;;4.60;89.50;;;;;;5066481;28;20451;-70
2023/02/08 11:19:41;;;;;;;15.43;9.50;;;4.60;88.50;;;;;;5074954;28;20413;-71
2023/02/08 11:22:16;;;;;;;14.17;9.97;;;4.70;88.20;;;;;;5075652;28;20456;-70
2023/02/08 11:24:49;;;;;;;14.40;10.03;;;4.70;87.70;;;;;;5075509;28;20446;-70
2023/02/08 11:27:36;;;;;;;14.43;10.00;;;4.70;87.70;;;;;;5074664;28;20494;-69
2023/02/08 11:30:17;;;;;;;13.87;10.20;;;4.80;88.00;;;;;;5075952;28;20435;-70
2023/02/08 11:32:45;;;;;;;14.33;10.30;;;4.90;87.30;;;;;;5075480;28;20432;-69
2023/02/08 11:35:20;;;;;;;15.70;10.17;;;5.00;86.50;;;;;;5075943;28;21333;-69
2023/02/08 11:37:54;;;;;;;16.17;10.07;;;5.10;87.00;;;;;;5070577;28;20536;-69
2023/02/08 11:40:44;;;;;;;15.10;10.30;;;5.10;87.40;;;;;;5074020;28;20444;-69
2023/02/08 11:43:27;;;;;;;16.40;11.00;;;5.10;86.70;;;;;;5071806;28;20429;-70
2023/02/08 11:45:55;;;;;;;13.63;8.90;;;5.10;86.20;;;;;;5055435;28;20464;-70
2023/02/08 11:48:23;;;;;;;27.07;18.40;;;5.20;84.60;;;;;;5073161;28;20446;-70
2023/02/08 11:51:02;;;;;;;15.90;10.73;;;5.20;85.90;;;;;;5072629;28;20481;-70
2023/02/08 11:53:38;;;;;;;14.00;9.93;;;5.30;84.40;;;;;;5074023;28;20489;-70
2023/02/08 11:56:26;;;;;;;14.10;9.17;;;5.40;84.40;;;;;;5077252;28;20480;-70
2023/02/08 11:59:13;;;;;;;17.40;10.13;;;5.40;83.50;;;;;;5070894;28;20436;-71
2023/02/08 12:01:40;;;;;;;12.93;9.10;;;5.50;83.00;;;;;;5075155;28;20432;-70
2023/02/08 12:04:12;;;;;;;14.23;10.20;;;5.70;83.40;;;;;;5066810;28;20449;-70
2023/02/08 12:07:04;;;;;;;14.43;10.33;;;5.80;83.10;;;;;;5066124;28;20468;-70
2023/02/08 12:09:51;;;;;;;17.03;10.33;;;5.90;83.70;;;;;;5062035;28;20436;-71
2023/02/08 12:12:38;;;;;;;14.57;10.03;;;6.20;84.10;;;;;;5066152;28;20536;-69
2023/02/08 12:15:41;;;;;;;15.00;10.63;;;6.80;84.40;;;;;;5051046;28;20455;-71
2023/02/08 12:18:12;;;;;;;14.27;10.57;;;7.70;82.80;;;;;;5067046;28;20468;-68
2023/02/08 12:20:40;;;;;;;13.83;10.10;;;8.40;82.00;;;;;;5066647;28;20440;-70
2023/02/08 12:23:08;;;;;;;19.23;12.23;;;8.70;77.70;;;;;;5067893;28;20448;-69
2023/02/08 12:25:42;;;;;;;12.73;10.00;;;9.00;77.00;;;;;;5066738;28;20506;-70
2023/02/08 12:28:17;;;;;;;15.83;11.03;;;9.30;76.70;;;;;;5070087;28;20432;-72
2023/02/08 12:31:23;;;;;;;18.37;11.30;;;9.40;75.10;;;;;;5075347;28;20464;-70
2023/02/08 12:33:57;;;;;;;15.70;10.80;;;9.70;74.00;;;;;;4956441;28;20847;-70
2023/02/08 12:43:23;;;;;;;17.80;10.60;;;10.50;67.90;;;;;;5069346;28;20666;-71
2023/02/08 12:45:54;;;;;;;14.80;10.53;;;10.70;67.20;;;;;;5073521;28;20456;-71
2023/02/08 12:48:20;;;;;;;15.23;10.83;;;10.70;65.90;;;;;;5068275;28;20505;-71
2023/02/08 12:51:14;;;;;;;13.07;10.50;;;10.90;65.40;;;;;;5070853;28;20473;-71
2023/02/08 12:53:45;;;;;;;16.40;12.60;;;10.90;64.80;;;;;;5058500;28;20222;-70
2023/02/08 12:56:26;;;;;;;19.30;14.00;;;11.00;65.00;;;;;;5066528;28;20499;-73
2023/02/08 12:58:59;;;;;;;18.43;14.13;;;11.10;65.50;;;;;;5068637;28;20937;-71
2023/02/08 13:01:30;;;;;;;17.10;11.73;;;11.20;65.70;;;;;;5071431;28;20475;-71
2023/02/08 13:04:24;;;;;;;18.53;13.03;;;11.30;65.70;;;;;;5069898;28;20597;-72